Time;durP1;ratioP1;P1;durP2;ratioP2;P2;SDS_P1;SDS_P2;PMS_P1;PMS_P2;Temp;Humidity;BMP_temperature;BMP_pressure;BME280_temperature;BME280_humidity;BME280_pressure;Samples;Min_cycle;Max_cycle;Signal;HPM_P1;HPM_P2
2023/10/18 00:00:46;;;;;;;5.82;2.30;;;;;;;4.13;61.88;99783.22;10409914;28;20052;-59
2023/10/18 00:05:49;;;;;;;6.00;2.13;;;;;;;4.18;61.99;99780.47;10428299;28;20443;-59
2023/10/18 00:10:53;;;;;;;4.75;2.17;;;;;;;4.23;61.66;99776.00;10429555;28;20581;-59
2023/10/18 00:16:05;;;;;;;3.53;1.98;;;;;;;4.08;61.84;99774.81;10408996;28;20037;-59
2023/10/18 00:21:07;;;;;;;4.18;2.22;;;;;;;4.12;61.81;99770.34;10427313;28;20052;-59
2023/10/18 00:26:11;;;;;;;5.15;2.53;;;;;;;4.09;61.79;99775.66;10427909;28;20099;-59
2023/10/18 00:31:20;;;;;;;7.50;2.90;;;;;;;4.05;61.93;99777.47;10427180;28;20651;-59
2023/10/18 00:36:22;;;;;;;5.60;2.85;;;;;;;3.96;62.00;99782.16;10423686;28;20211;-59
2023/10/18 00:41:32;;;;;;;5.20;2.53;;;;;;;4.00;62.10;99765.63;10410190;28;20611;-58
2023/10/18 00:46:35;;;;;;;5.87;3.27;;;;;;;3.70;62.24;99760.56;10392188;28;20539;-59
2023/10/18 00:51:37;;;;;;;6.32;2.78;;;;;;;3.59;62.73;99760.13;10427107;28;20099;-59
2023/10/18 00:56:41;;;;;;;6.35;2.58;;;;;;;3.47;62.53;99746.75;10425440;28;20139;-59
2023/10/18 01:01:44;;;;;;;3.90;2.13;;;;;;;3.58;62.79;99747.22;10408861;28;20044;-59
2023/10/18 01:06:50;;;;;;;2.97;2.05;;;;;;;3.69;62.61;99735.63;10425329;28;20283;-59
2023/10/18 01:11:52;;;;;;;4.68;2.08;;;;;;;3.76;62.46;99742.25;10407403;28;20818;-59
2023/10/18 01:16:56;;;;;;;4.30;2.10;;;;;;;3.81;62.45;99744.69;10425299;28;20053;-59
2023/10/18 01:21:58;;;;;;;7.45;2.78;;;;;;;3.67;62.30;99737.44;10425117;28;20107;-59
2023/10/18 01:27:04;;;;;;;4.78;2.45;;;;;;;3.60;62.58;99727.34;10406917;28;20142;-59
2023/10/18 01:32:06;;;;;;;7.10;2.60;;;;;;;3.60;62.61;99722.19;10424511;28;20064;-59
2023/10/18 01:37:08;;;;;;;5.82;2.40;;;;;;;3.63;62.58;99725.50;10424946;28;20387;-59
2023/10/18 01:42:13;;;;;;;5.78;2.30;;;;;;;3.73;62.57;99719.09;10424261;28;20045;-58
2023/10/18 01:47:15;;;;;;;4.47;2.40;;;;;;;3.72;62.49;99714.00;10408394;28;20095;-59
2023/10/18 01:52:19;;;;;;;3.35;2.20;;;;;;;3.58;62.44;99716.19;10424246;28;20546;-59
2023/10/18 01:57:21;;;;;;;4.68;2.55;;;;;;;3.56;62.49;99702.47;10423976;28;20095;-58
2023/10/18 02:02:23;;;;;;;8.10;2.58;;;;;;;3.55;62.70;99704.25;10403874;28;20055;-58
2023/10/18 02:07:25;;;;;;;4.47;2.42;;;;;;;3.64;62.60;99700.50;10414183;28;20551;-59
2023/10/18 02:12:29;;;;;;;4.18;2.33;;;;;;;3.62;62.53;99685.00;10413302;28;20045;-58
2023/10/18 02:17:31;;;;;;;4.60;2.42;;;;;;;3.53;62.65;99676.75;10415394;28;20044;-59
2023/10/18 02:22:37;;;;;;;4.53;2.83;;;;;;;3.48;62.92;99670.88;10430275;28;20345;-59
2023/10/18 02:27:39;;;;;;;6.65;2.55;;;;;;;3.51;63.07;99663.03;10413997;28;20155;-59
2023/10/18 02:32:41;;;;;;;4.60;2.13;;;;;;;3.56;62.69;99663.69;10409504;28;20045;-59
2023/10/18 02:37:43;;;;;;;4.50;2.20;;;;;;;3.53;62.75;99656.91;10446831;28;20056;-59
2023/10/18 02:42:46;;;;;;;3.78;2.22;;;;;;;3.33;62.64;99648.16;10431769;28;20045;-59
2023/10/18 02:47:51;;;;;;;4.70;2.38;;;;;;;3.31;63.08;99637.03;10430885;28;20128;-59
2023/10/18 02:52:53;;;;;;;3.88;2.25;;;;;;;3.35;63.16;99659.28;10429030;28;20045;-59
2023/10/18 02:57:56;;;;;;;8.77;2.50;;;;;;;3.41;62.79;99635.81;10391787;28;20057;-59
2023/10/18 03:02:58;;;;;;;5.50;2.67;;;;;;;3.18;62.85;99633.19;10433574;28;20383;-59
2023/10/18 03:08:00;;;;;;;6.75;2.40;;;;;;;2.89;63.13;99618.66;10431799;28;20045;-59
2023/10/18 03:13:03;;;;;;;5.28;2.55;;;;;;;3.02;63.33;99620.81;10428416;28;20489;-59
2023/10/18 03:18:05;;;;;;;3.17;1.92;;;;;;;3.16;63.25;99630.66;10430931;28;20135;-59
2023/10/18 03:23:08;;;;;;;4.03;1.80;;;;;;;3.17;63.13;99621.16;10429183;28;20033;-59
2023/10/18 03:28:13;;;;;;;5.05;2.42;;;;;;;3.16;63.15;99617.72;10413280;28;20037;-59
2023/10/18 03:33:15;;;;;;;4.55;2.38;;;;;;;3.00;63.45;99611.41;10412940;28;20098;-59
2023/10/18 03:38:21;;;;;;;5.32;2.50;;;;;;;3.12;63.51;99604.97;10444602;28;20167;-59
2023/10/18 03:43:30;;;;;;;5.22;1.98;;;;;;;3.14;63.54;99600.59;10429985;28;20417;-59
2023/10/18 03:48:39;;;;;;;4.00;2.28;;;;;;;3.13;63.74;99584.25;10430132;28;20081;-59
2023/10/18 03:53:42;;;;;;;6.53;2.72;;;;;;;3.20;63.70;99595.22;10410740;28;20501;-59
2023/10/18 03:58:49;;;;;;;4.03;2.10;;;;;;;3.31;63.43;99601.72;10411056;28;20307;-60
2023/10/18 04:03:51;;;;;;;3.97;2.38;;;;;;;3.32;63.26;99593.03;10427920;28;20048;-59
2023/10/18 04:08:58;;;;;;;3.53;1.90;;;;;;;2.96;63.58;99592.59;10428257;28;20047;-59
2023/10/18 04:14:00;;;;;;;3.83;2.17;;;;;;;2.99;64.09;99589.03;10410413;28;20044;-59
2023/10/18 04:19:07;;;;;;;6.25;2.83;;;;;;;3.16;63.69;99583.28;10428814;28;20418;-58
2023/10/18 04:24:09;;;;;;;14.63;3.55;;;;;;;3.15;63.58;99576.47;10424781;28;20044;-59
2023/10/18 04:29:18;;;;;;;3.10;2.00;;;;;;;2.80;63.62;99550.13;10409404;28;20052;-59
2023/10/18 04:34:21;;;;;;;6.07;2.45;;;;;;;2.78;63.77;99541.59;10426640;28;20144;-59
2023/10/18 04:39:27;;;;;;;4.03;2.45;;;;;;;2.87;63.87;99532.66;10425716;28;20382;-59
2023/10/18 04:44:34;;;;;;;4.68;2.20;;;;;;;3.05;64.03;99529.41;10428676;28;20047;-59
2023/10/18 04:49:36;;;;;;;7.03;2.60;;;;;;;3.18;63.92;99529.81;10410399;28;20045;-59
2023/10/18 04:54:41;;;;;;;4.53;2.38;;;;;;;3.22;63.77;99521.91;10426078;28;20033;-59
2023/10/18 04:59:46;;;;;;;6.57;2.80;;;;;;;3.27;63.89;99522.59;10426317;28;20593;-59
2023/10/18 05:04:49;;;;;;;5.75;3.05;;;;;;;3.34;63.49;99515.44;10428483;28;20045;-59
2023/10/18 05:09:57;;;;;;;5.78;2.40;;;;;;;3.40;63.36;99508.31;10424761;28;20583;-59
2023/10/18 05:20:21;;;;;;;9.18;2.95;;;;;;;3.20;63.56;99513.38;10426316;28;20417;-59
2023/10/18 05:25:29;;;;;;;6.03;2.70;;;;;;;3.27;63.68;99503.66;10426041;28;20190;-59
2023/10/18 05:36:11;;;;;;;4.85;2.53;;;;;;;3.63;63.49;99494.50;10405314;28;20060;-59
2023/10/18 05:46:32;;;;;;;4.82;2.60;;;;;;;3.85;62.89;99491.06;10406979;28;20044;-59
2023/10/18 05:51:34;;;;;;;5.32;2.30;;;;;;;3.66;63.12;99489.25;10425118;28;20045;-59
2023/10/18 05:56:40;;;;;;;6.38;2.28;;;;;;;3.76;63.18;99508.66;10424274;28;20428;-59
2023/10/18 06:01:42;;;;;;;7.70;2.92;;;;;;;3.82;63.23;99509.25;10425948;28;20037;-59
2023/10/18 06:06:44;;;;;;;4.82;2.90;;;;;;;3.77;62.80;99492.22;10424343;28;20081;-59
2023/10/18 06:11:48;;;;;;;5.60;2.95;;;;;;;3.57;63.21;99487.00;10425114;28;20049;-59
2023/10/18 06:16:51;;;;;;;6.40;2.53;;;;;;;3.72;63.12;99476.88;10398998;28;20053;-59
2023/10/18 06:21:59;;;;;;;6.28;2.83;;;;;;;3.78;62.89;99474.06;10424086;28;20041;-59
2023/10/18 06:27:04;;;;;;;4.75;2.58;;;;;;;3.72;63.23;99476.88;10424454;28;20555;-59
2023/10/18 06:32:09;;;;;;;3.67;2.25;;;;;;;3.99;63.12;99484.47;10420885;28;20508;-59
2023/10/18 06:37:31;;;;;;;5.32;2.50;;;;;;;4.22;62.69;99476.63;10430384;28;20132;-59
2023/10/18 06:42:34;;;;;;;4.10;2.20;;;;;;;4.39;62.36;99462.09;10430887;28;20583;-59
2023/10/18 06:47:44;;;;;;;5.57;2.50;;;;;;;4.37;62.23;99458.72;10400134;28;20179;-59
2023/10/18 06:52:52;;;;;;;4.57;2.60;;;;;;;4.60;62.36;99468.94;10430594;28;20044;-59
2023/10/18 06:57:56;;;;;;;4.70;2.75;;;;;;;4.88;61.80;99454.81;10430891;28;20417;-59
2023/10/18 07:03:01;;;;;;;3.67;2.20;;;;;;;5.02;61.63;99442.94;10430361;28;20052;-59
2023/10/18 07:08:04;;;;;;;7.63;3.28;;;;;;;5.19;61.50;99458.53;10414893;28;20437;-59
2023/10/18 07:13:07;;;;;;;34.53;7.45;;;;;;;5.27;61.56;99440.03;10414631;28;20338;-59
2023/10/18 07:18:14;;;;;;;50.55;10.10;;;;;;;5.44;61.68;99443.56;10432551;28;20056;-59
2023/10/18 07:23:21;;;;;;;19.35;6.45;;;;;;;5.64;61.37;99437.41;10430511;28;20054;-59
2023/10/18 07:28:29;;;;;;;16.63;5.18;;;;;;;5.83;61.08;99427.00;10430684;28;20067;-59
2023/10/18 07:33:31;;;;;;;9.13;3.70;;;;;;;5.99;60.90;99428.78;10431221;28;20111;-59
2023/10/18 07:38:37;;;;;;;10.60;3.60;;;;;;;6.08;60.82;99419.72;10409367;28;20049;-59
2023/10/18 07:43:43;;;;;;;7.15;3.20;;;;;;;6.18;60.77;99420.94;10428438;28;20060;-59
2023/10/18 07:48:52;;;;;;;5.90;3.10;;;;;;;6.38;60.62;99410.41;10409855;28;21565;-59
2023/10/18 07:53:55;;;;;;;5.70;2.90;;;;;;;6.60;60.48;99404.94;10430845;28;20428;-60
2023/10/18 08:04:20;;;;;;;7.22;3.35;;;;;;;7.04;59.86;99372.25;10425356;28;20512;-60
2023/10/18 08:09:28;;;;;;;5.88;2.90;;;;;;;7.23;59.48;99372.91;10424465;28;20060;-60
2023/10/18 08:14:31;;;;;;;5.57;3.00;;;;;;;7.54;59.12;99357.28;10418562;28;20045;-60
2023/10/18 08:19:55;;;;;;;5.47;3.17;;;;;;;7.57;58.45;99353.69;10420005;28;20041;-60
2023/10/18 08:24:58;;;;;;;5.72;2.97;;;;;;;7.90;58.32;99355.19;10423485;28;20037;-60
2023/10/18 08:30:22;;;;;;;8.13;3.25;;;;;;;8.06;57.88;99344.69;10402755;28;20366;-60
2023/10/18 08:35:23;;;;;;;6.38;3.20;;;;;;;8.23;56.95;99328.94;10424266;28;20147;-60
2023/10/18 08:40:36;;;;;;;8.90;4.05;;;;;;;8.13;56.76;99312.19;10403854;28;20055;-60
2023/10/18 08:45:48;;;;;;;7.88;3.55;;;;;;;7.88;56.58;99322.34;10425089;28;20137;-61
2023/10/18 08:50:51;;;;;;;5.85;3.22;;;;;;;7.87;57.26;99316.31;10410542;28;20674;-60
2023/10/18 08:55:57;;;;;;;7.05;3.22;;;;;;;7.89;57.07;99330.09;10419107;28;20190;-60
2023/10/18 09:06:14;;;;;;;7.25;3.47;;;;;;;8.41;56.31;99316.59;10408861;28;20045;-60
2023/10/18 09:11:21;;;;;;;8.07;3.65;;;;;;;8.65;55.98;99308.09;10400558;28;20041;-60
2023/10/18 09:16:23;;;;;;;8.20;3.30;;;;;;;9.17;55.69;99305.69;10411262;28;20087;-60
2023/10/18 09:21:32;;;;;;;6.25;3.13;;;;;;;9.54;55.08;99304.16;10420102;28;20564;-60
2023/10/18 09:26:41;;;;;;;6.95;3.30;;;;;;;9.96;53.96;99290.03;10417720;28;20040;-60
2023/10/18 09:31:50;;;;;;;9.07;3.58;;;;;;;9.98;53.16;99280.31;10418063;28;20049;-60
2023/10/18 09:36:56;;;;;;;4.88;2.75;;;;;;;10.15;51.97;99274.81;10396585;28;20067;-60
2023/10/18 09:41:59;;;;;;;5.10;2.80;;;;;;;10.81;53.08;99262.25;10412277;28;20079;-60
2023/10/18 09:47:04;;;;;;;5.70;3.20;;;;;;;10.79;52.41;99253.66;10401498;28;20049;-60
2023/10/18 09:52:11;;;;;;;6.93;3.05;;;;;;;10.72;52.73;99234.16;10416461;28;20046;-60
2023/10/18 09:57:19;;;;;;;9.95;3.47;;;;;;;10.92;52.27;99223.09;10409914;28;20043;-60
2023/10/18 10:02:23;;;;;;;4.70;2.60;;;;;;;10.62;52.41;99211.38;10414782;28;20262;-60
2023/10/18 10:07:39;;;;;;;4.60;2.63;;;;;;;10.67;51.96;99197.00;10415167;28;20060;-60
2023/10/18 10:12:42;;;;;;;4.95;2.75;;;;;;;10.93;51.70;99184.69;10410112;28;20075;-60
2023/10/18 10:18:00;;;;;;;4.90;2.58;;;;;;;11.30;50.08;99181.03;10392170;28;20626;-61
2023/10/18 10:23:06;;;;;;;5.75;3.22;;;;;;;11.77;50.62;99173.06;10418237;28;20175;-61
2023/10/18 10:28:14;;;;;;;4.85;2.30;;;;;;;11.94;49.68;99162.13;10416522;28;20767;-61
2023/10/18 10:33:18;;;;;;;5.88;2.53;;;;;;;11.96;50.16;99156.75;10418658;28;20182;-60
2023/10/18 10:38:26;;;;;;;4.90;2.60;;;;;;;11.81;49.32;99139.59;10416104;28;20048;-60
2023/10/18 10:43:29;;;;;;;5.40;2.70;;;;;;;11.85;49.74;99134.00;10417607;28;20045;-60
2023/10/18 10:48:41;;;;;;;5.30;2.65;;;;;;;11.96;50.41;99125.31;10397836;28;20041;-60
2023/10/18 10:53:57;;;;;;;4.15;2.42;;;;;;;11.71;48.70;99117.69;10417852;28;20049;-60
2023/10/18 11:05:24;;;;;;;5.47;1.92;;;;;;;12.03;49.19;99105.53;10412266;28;20405;-61
2023/10/18 11:10:04;;;;;;;4.40;2.17;;;;;;;12.13;48.54;99077.63;10402860;28;20040;-60
2023/10/18 11:15:16;;;;;;;4.35;2.38;;;;;;;12.37;48.59;99061.78;10417543;28;20106;-61
2023/10/18 11:20:29;;;;;;;4.25;1.95;;;;;;;12.41;47.75;99052.69;10429890;28;20049;-60
2023/10/18 11:25:33;;;;;;;3.92;2.08;;;;;;;12.43;47.55;99051.63;10424245;28;20973;-60
2023/10/18 11:30:37;;;;;;;4.82;2.25;;;;;;;12.19;46.71;99053.56;10402374;28;20437;-60
2023/10/18 11:40:50;;;;;;;5.50;2.65;;;;;;;12.49;47.46;99019.66;10416491;28;20516;-60
2023/10/18 11:46:07;;;;;;;2.97;1.67;;;;;;;12.65;46.44;98993.81;10424508;28;20420;-60
2023/10/18 11:51:11;;;;;;;5.15;1.90;;;;;;;12.70;46.84;99002.13;10421588;28;20060;-60
2023/10/18 11:56:13;;;;;;;4.85;2.40;;;;;;;12.92;47.00;98978.38;10421425;28;20385;-60
2023/10/18 12:01:19;;;;;;;3.53;1.90;;;;;;;13.34;46.28;98967.81;10423175;28;20306;-60
2023/10/18 12:06:22;;;;;;;3.05;1.92;;;;;;;13.82;46.28;98955.69;10402561;28;20049;-60
2023/10/18 12:11:25;;;;;;;3.95;2.10;;;;;;;14.33;45.16;98956.28;10404326;28;20480;-60
2023/10/18 12:16:27;;;;;;;3.55;1.95;;;;;;;14.10;44.24;98948.81;10435573;28;20049;-60
2023/10/18 12:21:29;;;;;;;4.70;1.80;;;;;;;14.50;44.99;98942.47;10408249;28;20045;-60
2023/10/18 12:26:34;;;;;;;3.55;1.70;;;;;;;14.64;44.77;98928.03;10419718;28;20076;-60
2023/10/18 12:31:39;;;;;;;4.82;1.60;;;;;;;14.82;45.18;98922.91;10423727;28;20060;-60
2023/10/18 12:36:49;;;;;;;3.22;1.80;;;;;;;14.83;44.53;98895.59;10389114;28;20048;-60
2023/10/18 12:41:55;;;;;;;4.20;2.15;;;;;;;14.68;44.75;98876.78;10404794;28;20864;-60
2023/10/18 12:46:57;;;;;;;3.70;1.80;;;;;;;14.79;43.78;98865.25;10386162;28;20053;-60
2023/10/18 12:52:02;;;;;;;5.25;1.75;;;;;;;14.78;44.16;98855.72;10403809;28;20041;-60
2023/10/18 12:57:10;;;;;;;5.18;1.80;;;;;;;14.98;44.17;98850.22;10420574;28;20531;-60
2023/10/18 13:02:41;;;;;;;4.78;1.58;;;;;;;15.09;44.24;98844.78;10421170;28;20128;-60
2023/10/18 13:07:37;;;;;;;6.65;1.88;;;;;;;14.86;43.12;98845.31;10416543;28;20419;-60
2023/10/18 13:13:04;;;;;;;2.92;1.60;;;;;;;15.11;43.54;98818.28;10420833;28;20413;-60
2023/10/18 13:18:06;;;;;;;3.75;1.48;;;;;;;15.60;43.61;98795.94;10417372;28;20057;-60
2023/10/18 13:23:08;;;;;;;3.05;1.60;;;;;;;15.39;42.83;98794.41;10415576;28;20514;-60
2023/10/18 13:28:11;;;;;;;4.45;2.30;;;;;;;15.11;42.80;98770.88;10417854;28;20477;-60
2023/10/18 13:33:13;;;;;;;2.72;1.55;;;;;;;14.86;42.08;98764.50;10409069;28;20049;-60
2023/10/18 13:38:16;;;;;;;2.55;1.45;;;;;;;14.65;41.73;98753.41;10399231;28;20083;-60
2023/10/18 13:43:18;;;;;;;4.25;1.80;;;;;;;14.46;43.30;98735.88;10398544;28;20052;-60
2023/10/18 13:48:25;;;;;;;5.75;1.88;;;;;;;14.74;41.79;98738.53;10416848;28;20049;-60
2023/10/18 13:53:27;;;;;;;2.90;1.60;;;;;;;14.87;43.16;98737.22;10417623;28;20558;-60
2023/10/18 13:58:32;;;;;;;4.03;1.60;;;;;;;14.86;42.94;98740.00;10399299;28;20103;-60
2023/10/18 14:03:33;;;;;;;2.85;1.65;;;;;;;14.76;43.25;98741.88;10419424;28;20029;-60
2023/10/18 14:08:36;;;;;;;3.03;1.65;;;;;;;14.68;43.07;98736.47;10414831;28;20041;-60
2023/10/18 14:13:39;;;;;;;4.38;1.92;;;;;;;14.65;43.58;98724.47;10418751;28;20045;-60
2023/10/18 14:18:42;;;;;;;5.28;1.65;;;;;;;14.59;43.55;98704.81;10417488;28;20190;-60
2023/10/18 14:23:47;;;;;;;4.20;2.38;;;;;;;14.60;43.92;98710.91;10416774;28;20055;-60
2023/10/18 14:28:49;;;;;;;4.47;1.92;;;;;;;14.64;44.51;98711.44;10399454;28;20472;-60
2023/10/18 14:33:53;;;;;;;2.42;1.40;;;;;;;14.42;44.09;98702.94;10416036;28;20068;-60
2023/10/18 14:39:05;;;;;;;6.03;1.90;;;;;;;14.15;44.10;98712.56;10430859;28;20338;-60
2023/10/18 14:44:08;;;;;;;3.63;1.80;;;;;;;14.07;44.57;98720.34;10418851;28;20501;-60
2023/10/18 14:49:13;;;;;;;3.30;1.65;;;;;;;14.10;45.14;98702.50;10417671;28;20477;-59
2023/10/18 14:54:15;;;;;;;6.80;1.80;;;;;;;13.97;44.78;98701.16;10397077;28;20425;-60
2023/10/18 14:59:17;;;;;;;2.60;1.50;;;;;;;13.82;45.37;98681.56;10435774;28;20045;-59
2023/10/18 15:04:19;;;;;;;3.03;1.67;;;;;;;13.77;45.38;98672.31;10427828;28;20090;-60
2023/10/18 15:09:21;;;;;;;6.32;2.40;;;;;;;13.73;45.36;98668.31;10387981;28;20053;-59
2023/10/18 15:14:24;;;;;;;3.85;1.60;;;;;;;13.71;45.56;98656.28;10426407;28;20059;-59
2023/10/18 15:19:29;;;;;;;4.03;1.70;;;;;;;13.81;45.34;98648.34;10418277;28;20063;-59
2023/10/18 15:24:40;;;;;;;3.63;1.90;;;;;;;13.76;45.03;98638.25;10408723;28;20048;-59
2023/10/18 15:29:42;;;;;;;3.20;1.50;;;;;;;13.71;45.36;98624.75;10404063;28;20037;-59
2023/10/18 15:34:47;;;;;;;2.58;1.42;;;;;;;13.56;45.02;98621.75;10424225;28;20501;-60
2023/10/18 15:39:49;;;;;;;3.75;1.90;;;;;;;13.43;44.64;98620.38;10417248;28;20496;-60
2023/10/18 15:44:55;;;;;;;4.20;1.80;;;;;;;13.32;43.85;98617.88;10419603;28;20417;-59
2023/10/18 15:49:58;;;;;;;2.80;1.55;;;;;;;13.32;45.18;98621.34;10423313;28;20446;-59
2023/10/18 15:55:01;;;;;;;3.75;1.67;;;;;;;13.35;45.64;98618.41;10437734;28;20507;-59
2023/10/18 16:00:07;;;;;;;3.15;1.60;;;;;;;13.32;45.65;98591.63;10401443;28;20425;-59
2023/10/18 16:05:13;;;;;;;2.58;1.60;;;;;;;13.10;46.08;98590.13;10403958;28;20044;-59
2023/10/18 16:10:18;;;;;;;5.10;2.15;;;;;;;13.14;46.46;98577.56;10415946;28;20036;-59
2023/10/18 16:15:27;;;;;;;3.65;1.75;;;;;;;13.10;46.48;98578.81;10424930;28;20055;-59
2023/10/18 16:20:31;;;;;;;3.70;2.00;;;;;;;13.07;46.98;98584.34;10419995;28;20187;-59
2023/10/18 16:25:40;;;;;;;3.55;1.80;;;;;;;12.98;46.71;98578.13;10423059;28;20075;-59
2023/10/18 16:30:42;;;;;;;4.78;2.15;;;;;;;13.00;47.28;98570.94;10419339;28;20061;-59
2023/10/18 16:35:45;;;;;;;5.03;2.33;;;;;;;12.92;47.42;98571.63;10423469;28;20064;-59
2023/10/18 16:40:46;;;;;;;4.25;1.80;;;;;;;12.96;47.53;98570.38;10419830;28;20053;-59
2023/10/18 16:45:48;;;;;;;6.22;2.00;;;;;;;13.05;47.87;98573.16;10422226;28;20029;-60
2023/10/18 16:50:51;;;;;;;3.20;1.73;;;;;;;12.93;47.73;98570.69;10418344;28;20386;-59
2023/10/18 16:55:55;;;;;;;4.82;2.03;;;;;;;12.98;47.73;98572.06;10396436;28;20122;-59
2023/10/18 17:00:59;;;;;;;4.90;1.83;;;;;;;12.87;47.70;98570.41;10421139;28;20122;-59
2023/10/18 17:06:04;;;;;;;3.05;1.70;;;;;;;12.86;47.95;98564.31;10419088;28;20134;-60
2023/10/18 17:11:12;;;;;;;4.07;1.70;;;;;;;12.79;47.61;98557.16;10414799;28;20041;-59
2023/10/18 17:16:16;;;;;;;4.13;1.80;;;;;;;12.81;47.81;98563.09;10420116;28;20163;-59
2023/10/18 17:21:19;;;;;;;6.45;1.90;;;;;;;12.85;47.94;98560.03;10419682;28;20045;-59
2023/10/18 17:26:22;;;;;;;3.55;1.98;;;;;;;12.93;48.23;98551.47;10435075;28;20711;-59
2023/10/18 17:31:24;;;;;;;4.90;2.10;;;;;;;12.98;48.19;98547.44;10402300;28;20525;-59
2023/10/18 17:36:26;;;;;;;3.33;1.90;;;;;;;12.90;48.37;98541.28;10417272;28;20041;-59
2023/10/18 17:41:28;;;;;;;5.80;2.40;;;;;;;12.79;48.68;98536.16;10411360;28;20477;-60
2023/10/18 17:46:30;;;;;;;5.53;1.85;;;;;;;12.86;48.32;98535.44;10408123;28;20670;-60
2023/10/18 17:51:32;;;;;;;3.17;1.58;;;;;;;12.88;48.92;98524.84;10398346;28;20486;-60
2023/10/18 17:56:35;;;;;;;2.97;1.50;;;;;;;12.93;48.50;98512.94;10416002;28;20051;-60
2023/10/18 18:01:37;;;;;;;3.25;1.95;;;;;;;12.89;48.69;98516.81;10417516;28;20128;-60
2023/10/18 18:06:40;;;;;;;3.35;1.70;;;;;;;12.74;48.78;98501.66;10415565;28;20064;-60
2023/10/18 18:11:42;;;;;;;3.85;1.80;;;;;;;12.65;48.67;98481.50;10399285;28;20583;-60
2023/10/18 18:16:45;;;;;;;3.90;1.70;;;;;;;12.66;48.72;98485.78;10413800;28;20341;-60
2023/10/18 18:21:47;;;;;;;3.85;2.10;;;;;;;12.71;48.54;98473.06;10418653;28;20509;-60
2023/10/18 18:26:49;;;;;;;4.05;1.80;;;;;;;12.79;48.64;98465.31;10420400;28;20049;-60
2023/10/18 18:31:54;;;;;;;4.60;1.95;;;;;;;12.78;48.50;98448.75;10403008;28;20140;-60
2023/10/18 18:36:56;;;;;;;4.47;2.28;;;;;;;12.85;48.46;98449.84;10424938;28;20037;-60
2023/10/18 18:41:58;;;;;;;3.47;1.70;;;;;;;12.77;48.77;98441.84;10414367;28;20044;-60
2023/10/18 18:47:00;;;;;;;5.10;1.85;;;;;;;12.77;48.61;98427.91;10392968;28;20048;-60
2023/10/18 18:52:03;;;;;;;4.22;2.13;;;;;;;12.64;48.65;98415.09;10429210;28;20048;-61
2023/10/18 18:57:06;;;;;;;5.10;2.20;;;;;;;12.68;49.04;98426.94;10429925;28;20513;-60
2023/10/18 19:02:09;;;;;;;5.15;2.10;;;;;;;12.77;48.93;98418.25;10423584;28;20041;-60
2023/10/18 19:07:11;;;;;;;4.13;1.92;;;;;;;12.81;49.43;98411.75;10429095;28;20057;-60
2023/10/18 19:12:13;;;;;;;8.43;2.13;;;;;;;12.75;48.74;98422.81;10427407;28;20359;-60
2023/10/18 19:17:15;;;;;;;5.20;1.98;;;;;;;12.79;48.95;98418.94;10428158;28;20052;-60
2023/10/18 19:22:17;;;;;;;3.20;1.75;;;;;;;12.83;49.09;98412.44;10426278;28;20095;-60
2023/10/18 19:27:19;;;;;;;4.82;2.30;;;;;;;12.72;48.74;98406.53;10428908;28;20037;-60
2023/10/18 19:32:21;;;;;;;7.95;2.92;;;;;;;12.66;48.79;98386.13;10426426;28;20273;-60
2023/10/18 19:37:24;;;;;;;4.20;2.25;;;;;;;12.67;48.94;98377.28;10428058;28;20057;-60
2023/10/18 19:42:26;;;;;;;4.50;2.35;;;;;;;12.71;49.14;98376.00;10427265;28;20045;-60
2023/10/18 19:47:31;;;;;;;3.75;1.85;;;;;;;12.69;49.61;98376.16;10409915;28;20545;-60
2023/10/18 19:52:34;;;;;;;4.07;1.98;;;;;;;12.71;49.62;98368.16;10426151;28;20076;-60
2023/10/18 19:57:36;;;;;;;4.40;1.90;;;;;;;12.70;50.21;98364.69;10426701;28;20045;-60
2023/10/18 20:02:42;;;;;;;3.58;1.88;;;;;;;12.68;50.92;98360.56;10375855;28;20513;-60
2023/10/18 20:07:45;;;;;;;8.10;2.08;;;;;;;12.57;51.04;98353.69;10408647;28;20110;-60
2023/10/18 20:12:47;;;;;;;5.35;2.30;;;;;;;12.55;50.78;98353.00;10407667;28;20045;-60
2023/10/18 20:17:51;;;;;;;6.25;1.98;;;;;;;12.56;51.56;98349.41;10426583;28;20049;-60
2023/10/18 20:22:56;;;;;;;3.17;2.10;;;;;;;12.61;52.66;98346.38;10408143;28;20669;-60
2023/10/18 20:28:00;;;;;;;3.13;1.92;;;;;;;12.49;53.54;98339.63;10408107;28;20048;-60
2023/10/18 20:33:02;;;;;;;2.83;1.70;;;;;;;12.28;54.09;98342.44;10421878;28;20072;-60
2023/10/18 20:38:06;;;;;;;4.78;2.30;;;;;;;12.11;55.03;98338.69;10401973;28;20052;-60
2023/10/18 20:43:09;;;;;;;5.40;2.05;;;;;;;12.01;55.81;98344.91;10406581;28;20049;-60
2023/10/18 20:48:11;;;;;;;4.75;2.60;;;;;;;12.02;56.35;98330.84;10406701;28;20055;-60
2023/10/18 20:53:17;;;;;;;4.53;2.40;;;;;;;11.84;56.99;98330.75;10402898;28;20052;-60
2023/10/18 20:58:22;;;;;;;3.70;2.13;;;;;;;11.85;57.23;98326.31;10427225;28;20125;-60
2023/10/18 21:03:24;;;;;;;5.13;2.58;;;;;;;11.75;57.51;98331.56;10439729;28;20044;-60
2023/10/18 21:08:26;;;;;;;4.78;2.33;;;;;;;11.70;58.33;98320.66;10439672;28;20045;-60
2023/10/18 21:13:28;;;;;;;5.13;2.58;;;;;;;11.70;58.67;98310.16;10425184;28;20289;-59
2023/10/18 21:18:31;;;;;;;4.97;2.42;;;;;;;11.65;59.11;98303.69;10423570;28;20064;-60
2023/10/18 21:23:35;;;;;;;4.80;2.25;;;;;;;11.58;59.48;98286.91;10423488;28;20416;-60
2023/10/18 21:28:36;;;;;;;3.30;2.03;;;;;;;11.63;59.73;98284.69;10424958;28;20045;-60
2023/10/18 21:33:39;;;;;;;7.68;3.25;;;;;;;11.62;59.56;98277.81;10423596;28;20048;-60
2023/10/18 21:38:42;;;;;;;4.40;2.20;;;;;;;11.56;60.10;98270.50;10405846;28;20045;-59
2023/10/18 21:43:47;;;;;;;4.22;2.13;;;;;;;11.58;60.56;98265.97;10421486;28;20037;-60
2023/10/18 21:48:51;;;;;;;4.32;2.42;;;;;;;11.48;60.77;98254.66;10422945;28;20102;-59
2023/10/18 21:53:53;;;;;;;6.65;2.75;;;;;;;11.52;60.96;98258.66;10422517;28;20045;-60
2023/10/18 21:58:55;;;;;;;5.50;2.67;;;;;;;11.47;61.12;98243.34;10423926;28;20500;-60
2023/10/18 22:04:00;;;;;;;3.80;2.45;;;;;;;11.54;61.30;98233.16;10421428;28;20543;-59
2023/10/18 22:09:23;;;;;;;3.70;2.25;;;;;;;11.52;61.61;98225.44;10421203;28;20036;-59
2023/10/18 22:14:25;;;;;;;4.85;2.40;;;;;;;11.53;61.74;98221.03;10421579;28;20037;-60
2023/10/18 22:19:29;;;;;;;3.70;2.40;;;;;;;11.53;62.25;98210.56;10405078;28;20044;-59
2023/10/18 22:24:38;;;;;;;7.28;2.13;;;;;;;11.57;62.33;98204.06;10403810;28;20045;-60
2023/10/18 22:29:41;;;;;;;4.07;2.50;;;;;;;11.49;62.62;98199.53;10421027;28;20116;-59
2023/10/18 22:34:43;;;;;;;6.97;2.63;;;;;;;11.44;62.71;98193.06;10422064;28;20455;-60
2023/10/18 22:39:50;;;;;;;6.75;2.38;;;;;;;11.45;62.84;98182.47;10422015;28;20308;-59
2023/10/18 22:45:09;;;;;;;4.57;2.35;;;;;;;11.36;63.18;98170.19;10421730;28;20505;-60
2023/10/18 22:50:51;;;;;;;4.93;2.15;;;;;;;11.40;63.03;98161.09;10421329;28;20095;-59
2023/10/18 22:55:44;;;;;;;3.13;1.92;;;;;;;11.44;63.12;98154.63;10397627;28;20044;-60
2023/10/18 23:00:49;;;;;;;3.45;1.80;;;;;;;11.39;63.34;98151.59;10422377;28;20060;-60
2023/10/18 23:05:58;;;;;;;4.75;2.30;;;;;;;11.29;63.76;98153.41;10389433;28;20522;-60
2023/10/18 23:11:17;;;;;;;3.40;2.00;;;;;;;11.29;63.71;98137.72;10421612;28;20048;-60
2023/10/18 23:21:44;;;;;;;6.40;2.60;;;;;;;11.35;63.86;98129.31;10428218;28;20060;-59
2023/10/18 23:32:11;;;;;;;7.17;2.90;;;;;;;11.08;64.59;98114.31;10429912;28;20053;-59
2023/10/18 23:37:27;;;;;;;5.25;2.70;;;;;;;10.88;65.50;98112.63;10441685;28;20198;-59
2023/10/18 23:42:33;;;;;;;4.63;2.42;;;;;;;10.85;65.53;98110.28;10426939;28;20052;-60
2023/10/18 23:52:49;;;;;;;4.82;2.10;;;;;;;10.75;65.81;98099.00;10426958;28;20453;-60
2023/10/18 23:57:53;;;;;;;5.50;2.90;;;;;;;10.84;66.09;98098.19;10440892;28;20197;-59
